PWSweather.com
Personal Weather Stations
Station Observations
MADWEATHER
MadeiraPT

MadeiraPT

Lat: 32.735, Lon: -17.194

Elevation: 1063

Station Type: Davis VantagePro2

www.mad-weather.com

High Low Average
Temperature 68.5°F20.3°C 59.4°F15.2°C 63.7°F17.6°C
Dew Point 59.2°F15.1°C 53.3°F11.8°C 57.0°F13.9°C
Winds 6.1 mph 9.8 kmh Calm Calm 2.0 mph WSW3.2 kmh WSW
Wind Gusts 9.0 mph14.5 kmh -- 4.0 mph6.4 kmh
Humidity 84% 70% 79%
Pressure 30.15 in1021.0 mb 30.04 in1017.3 mb -
Precipitation 0.00 in0.0 mm - -
Hour Temp Dew Point Humidity Winds Wind Gusts Pressure Precip Precip Rate Daily Precip Total
12:00 AM 61.8°F16.6°C 56.6°F13.7°C 83% 0.8 mph W1.3 kmh W 1.0 mph1.6 kmh 30.15 in1021.0 mb - 0.00 in0.0 mm 0.00 in0.0 mm
12:10 AM 62.0°F16.7°C 57.1°F13.9°C 84% 0.4 mph W0.6 kmh W 1.0 mph1.6 kmh 30.15 in1021.0 mb - 0.00 in0.0 mm 0.00 in0.0 mm
12:20 AM 62.1°F16.7°C 56.9°F13.8°C 83% 0.3 mph W0.5 kmh W 3.0 mph4.8 kmh 30.15 in1021.0 mb - 0.00 in0.0 mm 0.00 in0.0 mm
12:30 AM 62.1°F16.7°C 56.9°F13.8°C 83% 0.3 mph W0.5 kmh W 3.0 mph4.8 kmh 30.14 in1020.7 mb - 0.00 in0.0 mm 0.00 in0.0 mm
12:40 AM 62.0°F16.7°C 56.8°F13.8°C 83% 0.1 mph W0.2 kmh W 1.0 mph1.6 kmh 30.14 in1020.7 mb - 0.00 in0.0 mm 0.00 in0.0 mm
12:50 AM 61.9°F16.6°C 56.7°F13.7°C 83% 0.5 mph W0.8 kmh W 2.0 mph3.2 kmh 30.14 in1020.7 mb - 0.00 in0.0 mm 0.00 in0.0 mm
01:00 AM 61.8°F16.6°C 56.6°F13.7°C 83% Calm Calm -- 30.13 in1020.3 mb - 0.00 in0.0 mm 0.00 in0.0 mm
01:10 AM 61.7°F16.5°C 56.5°F13.6°C 83% 0.4 mph W0.6 kmh W 1.0 mph1.6 kmh 30.13 in1020.3 mb - 0.00 in0.0 mm 0.00 in0.0 mm
01:20 AM 61.5°F16.4°C 56.3°F13.5°C 83% 0.5 mph W0.8 kmh W 2.0 mph3.2 kmh 30.13 in1020.3 mb - 0.00 in0.0 mm 0.00 in0.0 mm
01:30 AM 61.4°F16.3°C 56.5°F13.6°C 84% 0.6 mph W1.0 kmh W 1.0 mph1.6 kmh 30.13 in1020.3 mb - 0.00 in0.0 mm 0.00 in0.0 mm
01:40 AM 61.2°F16.2°C 56.3°F13.5°C 84% 1.3 mph W2.1 kmh W 4.0 mph6.4 kmh 30.12 in1020.0 mb - 0.00 in0.0 mm 0.00 in0.0 mm
01:50 AM 61.1°F16.2°C 55.9°F13.3°C 83% 0.5 mph W0.8 kmh W 3.0 mph4.8 kmh 30.12 in1020.0 mb - 0.00 in0.0 mm 0.00 in0.0 mm
02:00 AM 61.0°F16.1°C 55.8°F13.2°C 83% 1.0 mph W1.6 kmh W 2.0 mph3.2 kmh 30.12 in1020.0 mb - 0.00 in0.0 mm 0.00 in0.0 mm
02:10 AM 60.9°F16.1°C 55.7°F13.2°C 83% 1.2 mph W1.9 kmh W 3.0 mph4.8 kmh 30.12 in1020.0 mb - 0.00 in0.0 mm 0.00 in0.0 mm
02:20 AM 60.9°F16.1°C 55.7°F13.2°C 83% 1.1 mph W1.8 kmh W 4.0 mph6.4 kmh 30.12 in1020.0 mb - 0.00 in0.0 mm 0.00 in0.0 mm
02:30 AM 61.0°F16.1°C 55.8°F13.2°C 83% 1.1 mph W1.8 kmh W 2.0 mph3.2 kmh 30.12 in1020.0 mb - 0.00 in0.0 mm 0.00 in0.0 mm
02:40 AM 61.2°F16.2°C 56.0°F13.3°C 83% 0.3 mph W0.5 kmh W 4.0 mph6.4 kmh 30.12 in1020.0 mb - 0.00 in0.0 mm 0.00 in0.0 mm
02:50 AM 61.3°F16.3°C 55.8°F13.2°C 82% 0.7 mph W1.1 kmh W 3.0 mph4.8 kmh 30.12 in1020.0 mb - 0.00 in0.0 mm 0.00 in0.0 mm
03:00 AM 61.3°F16.3°C 55.8°F13.2°C 82% 1.2 mph W1.9 kmh W 2.0 mph3.2 kmh 30.12 in1020.0 mb - 0.00 in0.0 mm 0.00 in0.0 mm
03:10 AM 61.4°F16.3°C 55.5°F13.1°C 81% 3.6 mph W5.8 kmh W 6.0 mph9.7 kmh 30.12 in1020.0 mb - 0.00 in0.0 mm 0.00 in0.0 mm
03:20 AM 61.6°F16.4°C 55.7°F13.2°C 81% 1.1 mph W1.8 kmh W 2.0 mph3.2 kmh 30.12 in1020.0 mb - 0.00 in0.0 mm 0.00 in0.0 mm
03:30 AM 61.8°F16.6°C 55.9°F13.3°C 81% 0.4 mph W0.6 kmh W 2.0 mph3.2 kmh 30.12 in1020.0 mb - 0.00 in0.0 mm 0.00 in0.0 mm
03:40 AM 61.8°F16.6°C 55.9°F13.3°C 81% 1.9 mph W3.1 kmh W 5.0 mph8.0 kmh 30.11 in1019.6 mb - 0.00 in0.0 mm 0.00 in0.0 mm
03:50 AM 61.7°F16.5°C 55.8°F13.2°C 81% 1.7 mph W2.7 kmh W 4.0 mph6.4 kmh 30.11 in1019.6 mb - 0.00 in0.0 mm 0.00 in0.0 mm
04:00 AM 61.7°F16.5°C 55.8°F13.2°C 81% 0.7 mph W1.1 kmh W 2.0 mph3.2 kmh 30.11 in1019.6 mb - 0.00 in0.0 mm 0.00 in0.0 mm
04:10 AM 61.6°F16.4°C 56.0°F13.3°C 82% 0.9 mph W1.4 kmh W 2.0 mph3.2 kmh 30.11 in1019.6 mb - 0.00 in0.0 mm 0.00 in0.0 mm
04:20 AM 61.5°F16.4°C 56.0°F13.3°C 82% 1.4 mph W2.3 kmh W 4.0 mph6.4 kmh 30.10 in1019.3 mb - 0.00 in0.0 mm 0.00 in0.0 mm
04:30 AM 61.6°F16.4°C 56.4°F13.6°C 83% 1.4 mph W2.3 kmh W 5.0 mph8.0 kmh 30.11 in1019.6 mb - 0.00 in0.0 mm 0.00 in0.0 mm
04:40 AM 61.8°F16.6°C 56.6°F13.7°C 83% 0.7 mph W1.1 kmh W 4.0 mph6.4 kmh 30.10 in1019.3 mb - 0.00 in0.0 mm 0.00 in0.0 mm
04:50 AM 61.7°F16.5°C 56.5°F13.6°C 83% 0.4 mph W0.6 kmh W 2.0 mph3.2 kmh 30.10 in1019.3 mb - 0.00 in0.0 mm 0.00 in0.0 mm
05:00 AM 61.7°F16.5°C 56.5°F13.6°C 83% 1.5 mph W2.4 kmh W 4.0 mph6.4 kmh 30.10 in1019.3 mb - 0.00 in0.0 mm 0.00 in0.0 mm
05:10 AM 61.7°F16.5°C 56.5°F13.6°C 83% 1.0 mph W1.6 kmh W 3.0 mph4.8 kmh 30.10 in1019.3 mb - 0.00 in0.0 mm 0.00 in0.0 mm
05:20 AM 61.5°F16.4°C 56.3°F13.5°C 83% 0.8 mph W1.3 kmh W 4.0 mph6.4 kmh 30.10 in1019.3 mb - 0.00 in0.0 mm 0.00 in0.0 mm
05:30 AM 61.3°F16.3°C 56.1°F13.4°C 83% 0.9 mph W1.4 kmh W 4.0 mph6.4 kmh 30.09 in1019.0 mb - 0.00 in0.0 mm 0.00 in0.0 mm
05:40 AM 61.2°F16.2°C 56.0°F13.3°C 83% 0.3 mph W0.5 kmh W 1.0 mph1.6 kmh 30.10 in1019.3 mb - 0.00 in0.0 mm 0.00 in0.0 mm
05:50 AM 61.0°F16.1°C 55.8°F13.2°C 83% 0.4 mph W0.6 kmh W 3.0 mph4.8 kmh 30.09 in1019.0 mb - 0.00 in0.0 mm 0.00 in0.0 mm
06:00 AM 60.5°F15.8°C 55.3°F12.9°C 83% 1.1 mph W1.8 kmh W 3.0 mph4.8 kmh 30.09 in1019.0 mb - 0.00 in0.0 mm 0.00 in0.0 mm
06:10 AM 60.2°F15.7°C 55.0°F12.8°C 83% 0.7 mph W1.1 kmh W 4.0 mph6.4 kmh 30.09 in1019.0 mb - 0.00 in0.0 mm 0.00 in0.0 mm
06:20 AM 60.0°F15.6°C 54.5°F12.5°C 82% 2.7 mph W4.3 kmh W 5.0 mph8.0 kmh 30.09 in1019.0 mb - 0.00 in0.0 mm 0.00 in0.0 mm
06:30 AM 59.8°F15.4°C 54.3°F12.4°C 82% 1.6 mph W2.6 kmh W 3.0 mph4.8 kmh 30.09 in1019.0 mb - 0.00 in0.0 mm 0.00 in0.0 mm
06:40 AM 59.6°F15.3°C 53.8°F12.1°C 81% 2.5 mph W4.0 kmh W 4.0 mph6.4 kmh 30.09 in1019.0 mb - 0.00 in0.0 mm 0.00 in0.0 mm
06:50 AM 59.6°F15.3°C 53.7°F12.1°C 81% 1.8 mph W2.9 kmh W 5.0 mph8.0 kmh 30.09 in1019.0 mb - 0.00 in0.0 mm 0.00 in0.0 mm
07:00 AM 59.5°F15.3°C 53.7°F12.1°C 81% 1.5 mph W2.4 kmh W 2.0 mph3.2 kmh 30.09 in1019.0 mb - 0.00 in0.0 mm 0.00 in0.0 mm
07:10 AM 59.6°F15.3°C 53.8°F12.1°C 81% 1.7 mph W2.7 kmh W 2.0 mph3.2 kmh 30.10 in1019.3 mb - 0.00 in0.0 mm 0.00 in0.0 mm
07:20 AM 59.5°F15.3°C 53.3°F11.8°C 80% 1.6 mph W2.6 kmh W 2.0 mph3.2 kmh 30.10 in1019.3 mb - 0.00 in0.0 mm 0.00 in0.0 mm
07:30 AM 59.4°F15.2°C 53.6°F12.0°C 81% 1.1 mph W1.8 kmh W 3.0 mph4.8 kmh 30.10 in1019.3 mb - 0.00 in0.0 mm 0.00 in0.0 mm
07:40 AM 59.5°F15.3°C 53.7°F12.1°C 81% 2.3 mph W3.7 kmh W 3.0 mph4.8 kmh 30.11 in1019.6 mb - 0.00 in0.0 mm 0.00 in0.0 mm
07:50 AM 59.6°F15.3°C 53.8°F12.1°C 81% 2.1 mph W3.4 kmh W 4.0 mph6.4 kmh 30.11 in1019.6 mb - 0.00 in0.0 mm 0.00 in0.0 mm
08:00 AM 59.7°F15.4°C 53.5°F11.9°C 80% 3.2 mph W5.1 kmh W 4.0 mph6.4 kmh 30.11 in1019.6 mb - 0.00 in0.0 mm 0.00 in0.0 mm
08:10 AM 59.9°F15.5°C 53.7°F12.1°C 80% 1.5 mph W2.4 kmh W 2.0 mph3.2 kmh 30.11 in1019.6 mb - 0.00 in0.0 mm 0.00 in0.0 mm
08:20 AM 60.2°F15.7°C 54.4°F12.4°C 81% 1.2 mph W1.9 kmh W 2.0 mph3.2 kmh 30.11 in1019.6 mb - 0.00 in0.0 mm 0.00 in0.0 mm
08:30 AM 61.2°F16.2°C 55.3°F12.9°C 81% Calm Calm -- 30.11 in1019.6 mb - 0.00 in0.0 mm 0.00 in0.0 mm
08:40 AM 62.4°F16.9°C 56.5°F13.6°C 81% Calm Calm -- 30.11 in1019.6 mb - 0.00 in0.0 mm 0.00 in0.0 mm
08:50 AM 63.6°F17.6°C 56.9°F13.8°C 79% Calm Calm -- 30.11 in1019.6 mb - 0.00 in0.0 mm 0.00 in0.0 mm
09:00 AM 64.4°F18.0°C 57.1°F13.9°C 77% Calm Calm -- 30.11 in1019.6 mb - 0.00 in0.0 mm 0.00 in0.0 mm
09:10 AM 65.0°F18.3°C 56.5°F13.6°C 74% Calm Calm -- 30.11 in1019.6 mb - 0.00 in0.0 mm 0.00 in0.0 mm
09:20 AM 65.5°F18.6°C 57.0°F13.9°C 74% 0.6 mph W1.0 kmh W 1.0 mph1.6 kmh 30.12 in1020.0 mb - 0.00 in0.0 mm 0.00 in0.0 mm
09:30 AM 65.7°F18.7°C 57.2°F14.0°C 74% 0.6 mph W1.0 kmh W -- 30.12 in1020.0 mb - 0.00 in0.0 mm 0.00 in0.0 mm
09:40 AM 65.9°F18.8°C 57.4°F14.1°C 74% 1.1 mph W1.8 kmh W 2.0 mph3.2 kmh 30.12 in1020.0 mb - 0.00 in0.0 mm 0.00 in0.0 mm
09:50 AM 66.4°F19.1°C 57.9°F14.4°C 74% 1.7 mph W2.7 kmh W 3.0 mph4.8 kmh 30.12 in1020.0 mb - 0.00 in0.0 mm 0.00 in0.0 mm
10:00 AM 66.7°F19.3°C 57.8°F14.3°C 73% 3.1 mph W5.0 kmh W 5.0 mph8.0 kmh 30.12 in1020.0 mb - 0.00 in0.0 mm 0.00 in0.0 mm
10:10 AM 66.1°F18.9°C 57.6°F14.2°C 74% 2.5 mph W4.0 kmh W 4.0 mph6.4 kmh 30.13 in1020.3 mb - 0.00 in0.0 mm 0.00 in0.0 mm
10:20 AM 66.2°F19.0°C 57.3°F14.1°C 73% 1.2 mph W1.9 kmh W 4.0 mph6.4 kmh 30.13 in1020.3 mb - 0.00 in0.0 mm 0.00 in0.0 mm
10:30 AM 66.8°F19.3°C 58.2°F14.6°C 74% 3.6 mph W5.8 kmh W 5.0 mph8.0 kmh 30.13 in1020.3 mb - 0.00 in0.0 mm 0.00 in0.0 mm
10:40 AM 67.1°F19.5°C 58.1°F14.5°C 73% 4.0 mph W6.4 kmh W 6.0 mph9.7 kmh 30.13 in1020.3 mb - 0.00 in0.0 mm 0.00 in0.0 mm
10:50 AM 67.4°F19.7°C 58.0°F14.4°C 72% 1.7 mph W2.7 kmh W 3.0 mph4.8 kmh 30.13 in1020.3 mb - 0.00 in0.0 mm 0.00 in0.0 mm
11:00 AM 66.5°F19.2°C 57.5°F14.2°C 73% 5.2 mph W8.4 kmh W 7.0 mph11.3 kmh 30.13 in1020.3 mb - 0.00 in0.0 mm 0.00 in0.0 mm
11:10 AM 66.6°F19.2°C 58.1°F14.5°C 74% 3.6 mph W5.8 kmh W 7.0 mph11.3 kmh 30.12 in1020.0 mb - 0.00 in0.0 mm 0.00 in0.0 mm
11:20 AM 66.7°F19.3°C 58.2°F14.6°C 74% 3.1 mph W5.0 kmh W 4.0 mph6.4 kmh 30.12 in1020.0 mb - 0.00 in0.0 mm 0.00 in0.0 mm
11:30 AM 67.3°F19.6°C 58.4°F14.7°C 73% 3.0 mph W4.8 kmh W 6.0 mph9.7 kmh 30.12 in1020.0 mb - 0.00 in0.0 mm 0.00 in0.0 mm
11:40 AM 67.5°F19.7°C 58.1°F14.5°C 72% 4.4 mph W7.1 kmh W 5.0 mph8.0 kmh 30.12 in1020.0 mb - 0.00 in0.0 mm 0.00 in0.0 mm
11:50 AM 66.9°F19.4°C 58.3°F14.6°C 74% 3.9 mph W6.3 kmh W 5.0 mph8.0 kmh 30.12 in1020.0 mb - 0.00 in0.0 mm 0.00 in0.0 mm
12:00 PM 66.8°F19.3°C 58.2°F14.6°C 74% 3.1 mph W5.0 kmh W 5.0 mph8.0 kmh 30.11 in1019.6 mb - 0.00 in0.0 mm 0.00 in0.0 mm
12:10 PM 67.8°F19.9°C 59.2°F15.1°C 74% 4.6 mph W7.4 kmh W 7.0 mph11.3 kmh 30.10 in1019.3 mb - 0.00 in0.0 mm 0.00 in0.0 mm
12:20 PM 68.5°F20.3°C 58.7°F14.8°C 71% 1.2 mph W1.9 kmh W 5.0 mph8.0 kmh 30.10 in1019.3 mb - 0.00 in0.0 mm 0.00 in0.0 mm
12:30 PM 67.8°F19.9°C 58.5°F14.7°C 72% 4.0 mph W6.4 kmh W 7.0 mph11.3 kmh 30.10 in1019.3 mb - 0.00 in0.0 mm 0.00 in0.0 mm
12:40 PM 68.1°F20.1°C 58.4°F14.7°C 71% 5.4 mph WSW8.7 kmh WSW 7.0 mph11.3 kmh 30.09 in1019.0 mb - 0.00 in0.0 mm 0.00 in0.0 mm
12:50 PM 67.8°F19.9°C 58.4°F14.7°C 72% 4.6 mph WSW7.4 kmh WSW 6.0 mph9.7 kmh 30.10 in1019.3 mb - 0.00 in0.0 mm 0.00 in0.0 mm
01:00 PM 67.9°F19.9°C 57.8°F14.3°C 70% 4.0 mph WSW6.4 kmh WSW 8.0 mph12.9 kmh 30.09 in1019.0 mb - 0.00 in0.0 mm 0.00 in0.0 mm
01:10 PM 67.5°F19.7°C 57.8°F14.3°C 71% 3.5 mph WSW5.6 kmh WSW 5.0 mph8.0 kmh 30.09 in1019.0 mb - 0.00 in0.0 mm 0.00 in0.0 mm
01:20 PM 67.7°F19.8°C 58.0°F14.4°C 71% 4.3 mph WSW6.9 kmh WSW 5.0 mph8.0 kmh 30.08 in1018.6 mb - 0.00 in0.0 mm 0.00 in0.0 mm
01:30 PM 68.1°F20.1°C 58.0°F14.4°C 70% 3.3 mph WSW5.3 kmh WSW 5.0 mph8.0 kmh 30.08 in1018.6 mb - 0.00 in0.0 mm 0.00 in0.0 mm
01:40 PM 68.2°F20.1°C 58.1°F14.5°C 70% 4.9 mph WSW7.9 kmh WSW 6.0 mph9.7 kmh 30.08 in1018.6 mb - 0.00 in0.0 mm 0.00 in0.0 mm
01:50 PM 68.1°F20.1°C 58.3°F14.6°C 71% 6.1 mph WSW9.8 kmh WSW 7.0 mph11.3 kmh 30.07 in1018.3 mb - 0.00 in0.0 mm 0.00 in0.0 mm
02:00 PM 68.5°F20.3°C 58.7°F14.8°C 71% 4.6 mph WSW7.4 kmh WSW 7.0 mph11.3 kmh 30.07 in1018.3 mb - 0.00 in0.0 mm 0.00 in0.0 mm
02:10 PM 68.1°F20.1°C 57.9°F14.4°C 70% 5.1 mph WSW8.2 kmh WSW 6.0 mph9.7 kmh 30.07 in1018.3 mb - 0.00 in0.0 mm 0.00 in0.0 mm
02:20 PM 68.4°F20.2°C 58.6°F14.8°C 71% 4.0 mph SW6.4 kmh SW 7.0 mph11.3 kmh 30.06 in1017.9 mb - 0.00 in0.0 mm 0.00 in0.0 mm
02:30 PM 67.3°F19.6°C 57.9°F14.4°C 72% 3.2 mph SW5.1 kmh SW 9.0 mph14.5 kmh 30.06 in1017.9 mb - 0.00 in0.0 mm 0.00 in0.0 mm
02:40 PM 68.0°F20.0°C 59.0°F15.0°C 73% 5.7 mph SW9.2 kmh SW 9.0 mph14.5 kmh 30.05 in1017.6 mb - 0.00 in0.0 mm 0.00 in0.0 mm
02:50 PM 68.1°F20.1°C 58.7°F14.8°C 72% 4.0 mph SW6.4 kmh SW 7.0 mph11.3 kmh 30.05 in1017.6 mb - 0.00 in0.0 mm 0.00 in0.0 mm
03:00 PM 68.1°F20.1°C 58.7°F14.8°C 72% 3.7 mph SW6.0 kmh SW 6.0 mph9.7 kmh 30.05 in1017.6 mb - 0.00 in0.0 mm 0.00 in0.0 mm
03:10 PM 68.4°F20.2°C 59.1°F15.1°C 72% 4.6 mph SW7.4 kmh SW 7.0 mph11.3 kmh 30.05 in1017.6 mb - 0.00 in0.0 mm 0.00 in0.0 mm
03:20 PM 68.1°F20.1°C 58.7°F14.8°C 72% 3.5 mph SW5.6 kmh SW 6.0 mph9.7 kmh 30.05 in1017.6 mb - 0.00 in0.0 mm 0.00 in0.0 mm
03:30 PM 68.2°F20.1°C 58.4°F14.7°C 71% 3.4 mph SW5.5 kmh SW 5.0 mph8.0 kmh 30.05 in1017.6 mb - 0.00 in0.0 mm 0.00 in0.0 mm
03:40 PM 67.8°F19.9°C 58.4°F14.7°C 72% 4.3 mph SW6.9 kmh SW 5.0 mph8.0 kmh 30.05 in1017.6 mb - 0.00 in0.0 mm 0.00 in0.0 mm
03:50 PM 66.8°F19.3°C 57.9°F14.4°C 73% 3.0 mph SW4.8 kmh SW 6.0 mph9.7 kmh 30.05 in1017.6 mb - 0.00 in0.0 mm 0.00 in0.0 mm
04:00 PM 66.6°F19.2°C 58.1°F14.5°C 74% 4.0 mph SW6.4 kmh SW 6.0 mph9.7 kmh 30.05 in1017.6 mb - 0.00 in0.0 mm 0.00 in0.0 mm
04:10 PM 66.0°F18.9°C 57.8°F14.3°C 75% 3.1 mph SW5.0 kmh SW 5.0 mph8.0 kmh 30.05 in1017.6 mb - 0.00 in0.0 mm 0.00 in0.0 mm
04:20 PM 65.6°F18.7°C 57.8°F14.3°C 76% 0.7 mph SW1.1 kmh SW 4.0 mph6.4 kmh 30.04 in1017.3 mb - 0.00 in0.0 mm 0.00 in0.0 mm
04:30 PM 65.5°F18.6°C 58.1°F14.5°C 77% 4.2 mph SW6.8 kmh SW 6.0 mph9.7 kmh 30.05 in1017.6 mb - 0.00 in0.0 mm 0.00 in0.0 mm
04:40 PM 65.3°F18.5°C 57.9°F14.4°C 77% 2.3 mph SW3.7 kmh SW 4.0 mph6.4 kmh 30.04 in1017.3 mb - 0.00 in0.0 mm 0.00 in0.0 mm
04:50 PM 65.0°F18.3°C 57.6°F14.2°C 77% 1.1 mph SW1.8 kmh SW 2.0 mph3.2 kmh 30.04 in1017.3 mb - 0.00 in0.0 mm 0.00 in0.0 mm
05:00 PM 65.1°F18.4°C 58.1°F14.5°C 78% 1.8 mph SW2.9 kmh SW 3.0 mph4.8 kmh 30.04 in1017.3 mb - 0.00 in0.0 mm 0.00 in0.0 mm
05:10 PM 64.9°F18.3°C 57.9°F14.4°C 78% 2.5 mph SW4.0 kmh SW 4.0 mph6.4 kmh 30.04 in1017.3 mb - 0.00 in0.0 mm 0.00 in0.0 mm
05:20 PM 64.9°F18.3°C 57.9°F14.4°C 78% 4.4 mph SW7.1 kmh SW 7.0 mph11.3 kmh 30.05 in1017.6 mb - 0.00 in0.0 mm 0.00 in0.0 mm
05:30 PM 64.8°F18.2°C 58.1°F14.5°C 79% 3.8 mph SW6.1 kmh SW 5.0 mph8.0 kmh 30.06 in1017.9 mb - 0.00 in0.0 mm 0.00 in0.0 mm
05:40 PM 64.7°F18.2°C 58.0°F14.4°C 79% 4.5 mph SW7.2 kmh SW 5.0 mph8.0 kmh 30.06 in1017.9 mb - 0.00 in0.0 mm 0.00 in0.0 mm
05:50 PM 64.6°F18.1°C 57.9°F14.4°C 79% 3.7 mph SW6.0 kmh SW 6.0 mph9.7 kmh 30.05 in1017.6 mb - 0.00 in0.0 mm 0.00 in0.0 mm
06:00 PM 64.5°F18.1°C 58.2°F14.6°C 80% 3.1 mph SW5.0 kmh SW 5.0 mph8.0 kmh 30.05 in1017.6 mb - 0.00 in0.0 mm 0.00 in0.0 mm
06:10 PM 64.3°F17.9°C 58.0°F14.4°C 80% 3.0 mph SW4.8 kmh SW 5.0 mph8.0 kmh 30.05 in1017.6 mb - 0.00 in0.0 mm 0.00 in0.0 mm
06:20 PM 64.2°F17.9°C 58.2°F14.6°C 81% 1.1 mph SW1.8 kmh SW 2.0 mph3.2 kmh 30.05 in1017.6 mb - 0.00 in0.0 mm 0.00 in0.0 mm
06:30 PM 64.1°F17.8°C 58.1°F14.5°C 81% 1.8 mph SW2.9 kmh SW 5.0 mph8.0 kmh 30.05 in1017.6 mb - 0.00 in0.0 mm 0.00 in0.0 mm
06:40 PM 63.9°F17.7°C 58.0°F14.4°C 81% 1.8 mph SW2.9 kmh SW 5.0 mph8.0 kmh 30.04 in1017.3 mb - 0.00 in0.0 mm 0.00 in0.0 mm
06:50 PM 63.8°F17.7°C 57.9°F14.4°C 81% 3.7 mph SW6.0 kmh SW 5.0 mph8.0 kmh 30.05 in1017.6 mb - 0.00 in0.0 mm 0.00 in0.0 mm
07:00 PM 63.6°F17.6°C 58.0°F14.4°C 82% 3.9 mph SW6.3 kmh SW 5.0 mph8.0 kmh 30.05 in1017.6 mb - 0.00 in0.0 mm 0.00 in0.0 mm
07:10 PM 63.5°F17.5°C 57.9°F14.4°C 82% 1.2 mph SW1.9 kmh SW 2.0 mph3.2 kmh 30.05 in1017.6 mb - 0.00 in0.0 mm 0.00 in0.0 mm
07:20 PM 63.5°F17.5°C 57.9°F14.4°C 82% 2.3 mph SW3.7 kmh SW 5.0 mph8.0 kmh 30.05 in1017.6 mb - 0.00 in0.0 mm 0.00 in0.0 mm
07:30 PM 63.4°F17.4°C 57.8°F14.3°C 82% 3.4 mph SW5.5 kmh SW 5.0 mph8.0 kmh 30.05 in1017.6 mb - 0.00 in0.0 mm 0.00 in0.0 mm
07:40 PM 63.3°F17.4°C 57.7°F14.3°C 82% 0.5 mph SW0.8 kmh SW 5.0 mph8.0 kmh 30.06 in1017.9 mb - 0.00 in0.0 mm 0.00 in0.0 mm
07:50 PM 63.3°F17.4°C 58.0°F14.4°C 83% 0.6 mph SW1.0 kmh SW 4.0 mph6.4 kmh 30.07 in1018.3 mb - 0.00 in0.0 mm 0.00 in0.0 mm
08:00 PM 63.3°F17.4°C 58.0°F14.4°C 83% 1.2 mph SW1.9 kmh SW 5.0 mph8.0 kmh 30.07 in1018.3 mb - 0.00 in0.0 mm 0.00 in0.0 mm
08:10 PM 63.3°F17.4°C 58.0°F14.4°C 83% 0.7 mph SW1.1 kmh SW 2.0 mph3.2 kmh 30.07 in1018.3 mb - 0.00 in0.0 mm 0.00 in0.0 mm
08:20 PM 63.3°F17.4°C 57.7°F14.3°C 82% 0.8 mph SW1.3 kmh SW 3.0 mph4.8 kmh 30.07 in1018.3 mb - 0.00 in0.0 mm 0.00 in0.0 mm
08:30 PM 63.3°F17.4°C 57.7°F14.3°C 82% 1.3 mph SW2.1 kmh SW 3.0 mph4.8 kmh 30.07 in1018.3 mb - 0.00 in0.0 mm 0.00 in0.0 mm
08:40 PM 63.3°F17.4°C 57.7°F14.3°C 82% Calm Calm -- 30.07 in1018.3 mb - 0.00 in0.0 mm 0.00 in0.0 mm
08:50 PM 63.2°F17.3°C 57.6°F14.2°C 82% Calm Calm -- 30.07 in1018.3 mb - 0.00 in0.0 mm 0.00 in0.0 mm
09:00 PM 63.2°F17.3°C 57.6°F14.2°C 82% 0.4 mph SW0.6 kmh SW 1.0 mph1.6 kmh 30.07 in1018.3 mb - 0.00 in0.0 mm 0.00 in0.0 mm
09:10 PM 63.1°F17.3°C 57.5°F14.2°C 82% Calm Calm -- 30.07 in1018.3 mb - 0.00 in0.0 mm 0.00 in0.0 mm
09:20 PM 63.0°F17.2°C 57.4°F14.1°C 82% Calm Calm -- 30.07 in1018.3 mb - 0.00 in0.0 mm 0.00 in0.0 mm
09:30 PM 62.8°F17.1°C 57.2°F14.0°C 82% Calm Calm 1.0 mph1.6 kmh 30.07 in1018.3 mb - 0.00 in0.0 mm 0.00 in0.0 mm
09:40 PM 62.6°F17.0°C 57.7°F14.3°C 84% 0.1 mph SW0.2 kmh SW 1.0 mph1.6 kmh 30.07 in1018.3 mb - 0.00 in0.0 mm 0.00 in0.0 mm
09:50 PM 62.5°F16.9°C 57.3°F14.1°C 83% 0.1 mph SW0.2 kmh SW -- 30.07 in1018.3 mb - 0.00 in0.0 mm 0.00 in0.0 mm
10:00 PM 62.4°F16.9°C 57.2°F14.0°C 83% Calm Calm 2.0 mph3.2 kmh 30.07 in1018.3 mb - 0.00 in0.0 mm 0.00 in0.0 mm
10:10 PM 62.3°F16.8°C 57.0°F13.9°C 83% Calm Calm -- 30.07 in1018.3 mb - 0.00 in0.0 mm 0.00 in0.0 mm
10:20 PM 62.2°F16.8°C 57.0°F13.9°C 83% Calm Calm -- 30.07 in1018.3 mb - 0.00 in0.0 mm 0.00 in0.0 mm
10:30 PM 62.2°F16.8°C 57.0°F13.9°C 83% 0.5 mph SW0.8 kmh SW 1.0 mph1.6 kmh 30.07 in1018.3 mb - 0.00 in0.0 mm 0.00 in0.0 mm
10:40 PM 62.2°F16.8°C 57.0°F13.9°C 83% Calm Calm 1.0 mph1.6 kmh 30.07 in1018.3 mb - 0.00 in0.0 mm 0.00 in0.0 mm
10:50 PM 62.2°F16.8°C 57.0°F13.9°C 83% 0.1 mph SW0.2 kmh SW 1.0 mph1.6 kmh 30.07 in1018.3 mb - 0.00 in0.0 mm 0.00 in0.0 mm
11:00 PM 62.1°F16.7°C 56.9°F13.8°C 83% Calm Calm -- 30.07 in1018.3 mb - 0.00 in0.0 mm 0.00 in0.0 mm
11:10 PM 62.1°F16.7°C 56.9°F13.8°C 83% Calm Calm 1.0 mph1.6 kmh 30.07 in1018.3 mb - 0.00 in0.0 mm 0.00 in0.0 mm
11:20 PM 62.2°F16.8°C 56.9°F13.8°C 83% Calm Calm 1.0 mph1.6 kmh 30.07 in1018.3 mb - 0.00 in0.0 mm 0.00 in0.0 mm
11:30 PM 62.1°F16.7°C 56.9°F13.8°C 83% Calm Calm 1.0 mph1.6 kmh 30.07 in1018.3 mb - 0.00 in0.0 mm 0.00 in0.0 mm
11:40 PM 62.2°F16.8°C 57.0°F13.9°C 83% 0.2 mph SW0.3 kmh SW 1.0 mph1.6 kmh 30.07 in1018.3 mb - 0.00 in0.0 mm 0.00 in0.0 mm
11:50 PM 62.2°F16.8°C 57.0°F13.9°C 83% 0.5 mph SW0.8 kmh SW 3.0 mph4.8 kmh 30.07 in1018.3 mb - 0.00 in0.0 mm 0.00 in0.0 mm